Petersfield, United Kingdom
Current Conditions -  °F | °C
As of 11:50 PM on Monday 22 Dec 2014 (Local Time) from EGVO Reporting Station
Overcast Overcast  
Wind Chill: 50°   Ceiling: 3500
Heat Index: 50°   Visibility: 6mi
Dew Point: 43°   Wind: 20mph
Humidity: 76%   Direction: 230°SW
Pressure: 30.09"   Gusts: NA
Location:  51°N, 0.93°W
Report Text: EGVO 222350Z 23017KT 9999 SCT020 OVC035 10/06 Q1019 WHT
Loading
Personal Weather Stations






























Interactive Weather Map New forecast layout! Learn more

10-Day Weather Forecast

Advertisements
Track Severe Weather on mobile